sensor_id;sensor_type;location;lat;lon;timestamp;pressure;altitude;pressure_sealevel;temperature;humidity
13476;BME280;6810;63.824;20.288;2022-09-27T00:01:41;100954.78;;;10.99;79.50
13476;BME280;6810;63.824;20.288;2022-09-27T00:04:10;100954.69;;;11.01;80.71
13476;BME280;6810;63.824;20.288;2022-09-27T00:06:37;100959.19;;;11.00;80.25
13476;BME280;6810;63.824;20.288;2022-09-27T00:09:07;100920.97;;;10.84;80.71
13476;BME280;6810;63.824;20.288;2022-09-27T00:11:36;100952.03;;;11.01;79.75
13476;BME280;6810;63.824;20.288;2022-09-27T00:14:05;100952.03;;;11.01;79.63
13476;BME280;6810;63.824;20.288;2022-09-27T00:16:36;100952.03;;;11.01;79.76
13476;BME280;6810;63.824;20.288;2022-09-27T00:19:06;100920.28;;;10.81;80.27
13476;BME280;6810;63.824;20.288;2022-09-27T00:21:34;100930.50;;;10.88;79.96
13476;BME280;6810;63.824;20.288;2022-09-27T00:24:01;100944.19;;;10.98;80.71
13476;BME280;6810;63.824;20.288;2022-09-27T00:26:29;100948.69;;;10.97;80.01
13476;BME280;6810;63.824;20.288;2022-09-27T00:28:56;100946.94;;;10.96;80.19
13476;BME280;6810;63.824;20.288;2022-09-27T00:31:28;100947.13;;;10.93;81.09
13476;BME280;6810;63.824;20.288;2022-09-27T00:33:58;100943.69;;;10.91;81.09
13476;BME280;6810;63.824;20.288;2022-09-27T00:36:27;100952.53;;;10.92;80.38
13476;BME280;6810;63.824;20.288;2022-09-27T00:38:55;100956.16;;;10.91;81.19
13476;BME280;6810;63.824;20.288;2022-09-27T00:41:33;100952.72;;;10.89;80.08
13476;BME280;6810;63.824;20.288;2022-09-27T00:44:04;100952.88;;;10.86;81.17
13476;BME280;6810;63.824;20.288;2022-09-27T00:46:35;100948.50;;;10.85;81.10
13476;BME280;6810;63.824;20.288;2022-09-27T00:49:15;100963.81;;;10.81;80.08
13476;BME280;6810;63.824;20.288;2022-09-27T00:51:47;100954.19;;;10.79;80.08
13476;BME280;6810;63.824;20.288;2022-09-27T00:54:17;100957.03;;;10.76;80.44
13476;BME280;6810;63.824;20.288;2022-09-27T00:56:45;100962.44;;;10.74;81.17
13476;BME280;6810;63.824;20.288;2022-09-27T00:59:18;100958.97;;;10.72;80.58
13476;BME280;6810;63.824;20.288;2022-09-27T01:01:48;100929.81;;;10.53;80.58
13476;BME280;6810;63.824;20.288;2022-09-27T01:04:21;100959.31;;;10.66;80.62
13476;BME280;6810;63.824;20.288;2022-09-27T01:06:50;100936.19;;;10.51;80.22
13476;BME280;6810;63.824;20.288;2022-09-27T01:09:17;100964.13;;;10.60;81.30
13476;BME280;6810;63.824;20.288;2022-09-27T01:12:00;100962.56;;;10.56;81.35
13476;BME280;6810;63.824;20.288;2022-09-27T01:17:46;100973.41;;;10.52;80.58
13476;BME280;6810;63.824;20.288;2022-09-27T01:26:11;100979.06;;;10.46;81.38
13476;BME280;6810;63.824;20.288;2022-09-27T01:31:37;100981.91;;;10.43;80.81
13476;BME280;6810;63.824;20.288;2022-09-27T01:42:38;100987.56;;;10.37;80.69
13476;BME280;6810;63.824;20.288;2022-09-27T01:48:03;100980.66;;;10.33;81.07
13476;BME280;6810;63.824;20.288;2022-09-27T01:51:21;100977.31;;;10.30;80.84
13476;BME280;6810;63.824;20.288;2022-09-27T01:53:53;100980.88;;;10.29;82.05
13476;BME280;6810;63.824;20.288;2022-09-27T01:56:47;100974.84;;;10.25;81.89
13476;BME280;6810;63.824;20.288;2022-09-27T01:59:25;100976.75;;;10.23;81.73
13476;BME280;6810;63.824;20.288;2022-09-27T02:02:09;100983.09;;;10.21;81.76
13476;BME280;6810;63.824;20.288;2022-09-27T02:04:58;100981.38;;;10.20;81.66
13476;BME280;6810;63.824;20.288;2022-09-27T02:07:51;100984.19;;;10.17;81.03
13476;BME280;6810;63.824;20.288;2022-09-27T02:10:26;100980.75;;;10.15;80.89
13476;BME280;6810;63.824;20.288;2022-09-27T02:16:07;100981.88;;;10.11;81.90
13476;BME280;6810;63.824;20.288;2022-09-27T02:21:10;100990.00;;;10.08;82.01
13476;BME280;6810;63.824;20.288;2022-09-27T02:23:44;100984.72;;;10.06;81.68
13476;BME280;6810;63.824;20.288;2022-09-27T02:26:23;100983.94;;;10.04;81.56
13476;BME280;6810;63.824;20.288;2022-09-27T02:29:38;100982.31;;;10.02;81.75
13476;BME280;6810;63.824;20.288;2022-09-27T02:31:56;100984.09;;;10.01;81.89
13476;BME280;6810;63.824;20.288;2022-09-27T02:34:26;100984.25;;;9.98;82.59
13476;BME280;6810;63.824;20.288;2022-09-27T02:36:54;100978.00;;;9.99;82.65
13476;BME280;6810;63.824;20.288;2022-09-27T02:39:22;100983.34;;;9.99;82.65
13476;BME280;6810;63.824;20.288;2022-09-27T02:41:58;100984.19;;;10.00;82.89
13476;BME280;6810;63.824;20.288;2022-09-27T02:44:26;100985.06;;;10.00;82.41
13476;BME280;6810;63.824;20.288;2022-09-27T02:47:07;100991.25;;;10.01;82.55
13476;BME280;6810;63.824;20.288;2022-09-27T03:02:41;100991.09;;;10.04;82.41
13476;BME280;6810;63.824;20.288;2022-09-27T03:05:26;100987.63;;;10.02;82.71
13476;BME280;6810;63.824;20.288;2022-09-27T03:07:54;101000.78;;;10.05;83.39
13476;BME280;6810;63.824;20.288;2022-09-27T03:10:24;100997.25;;;10.04;82.56
13476;BME280;6810;63.824;20.288;2022-09-27T03:12:52;100999.91;;;10.04;82.83
13476;BME280;6810;63.824;20.288;2022-09-27T03:15:20;100998.13;;;10.05;82.62
13476;BME280;6810;63.824;20.288;2022-09-27T03:17:53;101007.81;;;10.06;82.82
13476;BME280;6810;63.824;20.288;2022-09-27T03:20:23;101007.78;;;10.07;82.76
13476;BME280;6810;63.824;20.288;2022-09-27T03:23:10;101009.53;;;10.08;82.61
13476;BME280;6810;63.824;20.288;2022-09-27T03:25:37;101006.88;;;10.08;83.17
13476;BME280;6810;63.824;20.288;2022-09-27T03:28:04;101000.66;;;10.08;83.66
13476;BME280;6810;63.824;20.288;2022-09-27T03:30:32;101008.56;;;10.09;83.89
13476;BME280;6810;63.824;20.288;2022-09-27T03:32:59;101017.44;;;10.10;83.83
13476;BME280;6810;63.824;20.288;2022-09-27T03:35:45;101006.94;;;10.07;83.63
13476;BME280;6810;63.824;20.288;2022-09-27T03:38:12;101010.38;;;10.09;83.86
13476;BME280;6810;63.824;20.288;2022-09-27T03:40:40;101023.44;;;10.13;84.21
13476;BME280;6810;63.824;20.288;2022-09-27T03:43:08;101011.88;;;10.14;83.00
13476;BME280;6810;63.824;20.288;2022-09-27T03:45:36;101016.25;;;10.15;83.08
13476;BME280;6810;63.824;20.288;2022-09-27T03:48:07;101018.91;;;10.15;83.30
13476;BME280;6810;63.824;20.288;2022-09-27T03:50:34;101014.47;;;10.16;83.73
13476;BME280;6810;63.824;20.288;2022-09-27T03:53:01;101020.63;;;10.16;82.92
13476;BME280;6810;63.824;20.288;2022-09-27T03:55:29;101018.75;;;10.18;84.04
13476;BME280;6810;63.824;20.288;2022-09-27T03:57:56;101022.53;;;10.14;82.93
13476;BME280;6810;63.824;20.288;2022-09-27T04:00:23;101013.50;;;10.17;83.09
13476;BME280;6810;63.824;20.288;2022-09-27T04:02:52;101020.63;;;10.16;83.51
13476;BME280;6810;63.824;20.288;2022-09-27T04:05:26;101031.91;;;10.21;84.17
13476;BME280;6810;63.824;20.288;2022-09-27T04:08:01;101027.38;;;10.23;83.39
13476;BME280;6810;63.824;20.288;2022-09-27T04:10:30;101035.28;;;10.25;83.00
13476;BME280;6810;63.824;20.288;2022-09-27T04:12:58;101036.13;;;10.25;83.98
13476;BME280;6810;63.824;20.288;2022-09-27T04:15:29;101029.88;;;10.26;83.84
13476;BME280;6810;63.824;20.288;2022-09-27T04:18:15;101036.91;;;10.27;83.06
13476;BME280;6810;63.824;20.288;2022-09-27T04:21:21;101033.34;;;10.28;83.34
13476;BME280;6810;63.824;20.288;2022-09-27T04:23:51;101021.25;;;10.21;82.99
13476;BME280;6810;63.824;20.288;2022-09-27T04:26:21;101030.59;;;10.30;83.77
13476;BME280;6810;63.824;20.288;2022-09-27T04:29:11;101041.25;;;10.30;83.36
13476;BME280;6810;63.824;20.288;2022-09-27T04:31:46;101038.66;;;10.28;83.08
13476;BME280;6810;63.824;20.288;2022-09-27T04:34:13;101046.56;;;10.30;83.75
13476;BME280;6810;63.824;20.288;2022-09-27T04:36:40;101049.16;;;10.31;83.20
13476;BME280;6810;63.824;20.288;2022-09-27T04:39:11;101047.34;;;10.32;83.80
13476;BME280;6810;63.824;20.288;2022-09-27T04:41:41;101041.16;;;10.31;82.69
13476;BME280;6810;63.824;20.288;2022-09-27T04:44:08;101040.28;;;10.31;83.21
13476;BME280;6810;63.824;20.288;2022-09-27T04:46:35;101048.22;;;10.32;83.85
13476;BME280;6810;63.824;20.288;2022-09-27T04:49:03;101054.34;;;10.34;82.70
13476;BME280;6810;63.824;20.288;2022-09-27T04:51:33;101056.03;;;10.35;83.11
13476;BME280;6810;63.824;20.288;2022-09-27T04:54:00;101057.75;;;10.36;83.67
13476;BME280;6810;63.824;20.288;2022-09-27T04:56:31;101048.28;;;10.31;83.23
13476;BME280;6810;63.824;20.288;2022-09-27T04:58:59;101061.22;;;10.38;83.78
13476;BME280;6810;63.824;20.288;2022-09-27T05:01:28;101061.22;;;10.38;83.00
13476;BME280;6810;63.824;20.288;2022-09-27T05:03:56;101050.56;;;10.38;82.87
13476;BME280;6810;63.824;20.288;2022-09-27T05:06:24;101058.53;;;10.38;83.93
13476;BME280;6810;63.824;20.288;2022-09-27T05:08:54;101044.28;;;10.39;83.38
13476;BME280;6810;63.824;20.288;2022-09-27T05:11:27;101055.81;;;10.40;82.89
13476;BME280;6810;63.824;20.288;2022-09-27T05:14:12;101057.50;;;10.41;83.80
13476;BME280;6810;63.824;20.288;2022-09-27T05:16:49;101055.72;;;10.41;83.99
13476;BME280;6810;63.824;20.288;2022-09-27T05:19:35;101049.50;;;10.41;83.49
13476;BME280;6810;63.824;20.288;2022-09-27T05:22:07;101044.44;;;10.36;82.75
13476;BME280;6810;63.824;20.288;2022-09-27T05:24:34;101055.72;;;10.41;83.08
13476;BME280;6810;63.824;20.288;2022-09-27T05:27:02;101064.59;;;10.42;83.57
13476;BME280;6810;63.824;20.288;2022-09-27T05:29:30;101036.75;;;10.30;83.79
13476;BME280;6810;63.824;20.288;2022-09-27T05:32:23;101067.25;;;10.42;82.73
13476;BME280;6810;63.824;20.288;2022-09-27T05:35:13;101061.84;;;10.43;83.78
13476;BME280;6810;63.824;20.288;2022-09-27T05:37:40;101068.88;;;10.44;84.05
13476;BME280;6810;63.824;20.288;2022-09-27T05:40:07;101059.25;;;10.42;83.75
13476;BME280;6810;63.824;20.288;2022-09-27T05:42:55;101068.63;;;10.49;84.26
13476;BME280;6810;63.824;20.288;2022-09-27T05:45:23;101064.19;;;10.49;83.77
13476;BME280;6810;63.824;20.288;2022-09-27T05:47:56;101068.47;;;10.52;83.59
13476;BME280;6810;63.824;20.288;2022-09-27T05:50:25;101074.59;;;10.54;84.00
13476;BME280;6810;63.824;20.288;2022-09-27T05:52:53;101070.13;;;10.54;84.13
13476;BME280;6810;63.824;20.288;2022-09-27T05:55:21;101069.19;;;10.56;84.12
13476;BME280;6810;63.824;20.288;2022-09-27T05:58:00;101075.28;;;10.57;83.08
13476;BME280;6810;63.824;20.288;2022-09-27T06:00:38;101082.28;;;10.60;84.06
13476;BME280;6810;63.824;20.288;2022-09-27T06:03:25;101089.25;;;10.63;83.28
13476;BME280;6810;63.824;20.288;2022-09-27T06:06:12;101085.66;;;10.64;83.56
13476;BME280;6810;63.824;20.288;2022-09-27T06:08:52;101092.69;;;10.65;83.55
13476;BME280;6810;63.824;20.288;2022-09-27T06:11:20;101095.28;;;10.66;83.42
13476;BME280;6810;63.824;20.288;2022-09-27T06:13:48;101094.25;;;10.69;84.19
13476;BME280;6810;63.824;20.288;2022-09-27T06:16:15;101092.38;;;10.71;83.38
13476;BME280;6810;63.824;20.288;2022-09-27T06:18:44;101081.78;;;10.69;83.22
13476;BME280;6810;63.824;20.288;2022-09-27T06:21:12;101093.91;;;10.75;84.09
13476;BME280;6810;63.824;20.288;2022-09-27T06:23:43;101103.66;;;10.76;83.24
13476;BME280;6810;63.824;20.288;2022-09-27T06:26:22;101096.41;;;10.78;83.12
13476;BME280;6810;63.824;20.288;2022-09-27T06:28:57;101077.50;;;10.67;83.23
13476;BME280;6810;63.824;20.288;2022-09-27T06:31:24;101102.38;;;10.83;82.96
13476;BME280;6810;63.824;20.288;2022-09-27T06:34:01;101103.19;;;10.85;83.30
13476;BME280;6810;63.824;20.288;2022-09-27T06:36:29;101103.00;;;10.88;83.96
13476;BME280;6810;63.824;20.288;2022-09-27T06:38:56;101105.50;;;10.91;83.99
13476;BME280;6810;63.824;20.288;2022-09-27T06:41:33;101102.69;;;10.94;82.76
13476;BME280;6810;63.824;20.288;2022-09-27T06:44:04;101099.94;;;10.95;83.63
13476;BME280;6810;63.824;20.288;2022-09-27T06:46:46;101110.50;;;10.97;83.02
13476;BME280;6810;63.824;20.288;2022-09-27T06:49:50;101113.97;;;10.99;83.07
13476;BME280;6810;63.824;20.288;2022-09-27T06:52:37;101117.31;;;11.02;83.51
13476;BME280;6810;63.824;20.288;2022-09-27T06:55:24;101112.69;;;11.06;83.27
13476;BME280;6810;63.824;20.288;2022-09-27T06:58:11;101116.06;;;11.09;82.62
13476;BME280;6810;63.824;20.288;2022-09-27T07:01:15;101109.16;;;11.05;83.03
13476;BME280;6810;63.824;20.288;2022-09-27T07:04:21;101125.28;;;11.19;82.73
13476;BME280;6810;63.824;20.288;2022-09-27T07:07:43;101123.22;;;11.24;82.96
13476;BME280;6810;63.824;20.288;2022-09-27T07:10:33;101123.06;;;11.27;82.64
13476;BME280;6810;63.824;20.288;2022-09-27T07:13:22;101124.50;;;11.33;82.10
13476;BME280;6810;63.824;20.288;2022-09-27T07:16:13;101111.59;;;11.25;82.16
13476;BME280;6810;63.824;20.288;2022-09-27T07:19:02;101128.59;;;11.40;82.83
13476;BME280;6810;63.824;20.288;2022-09-27T07:21:50;101125.13;;;11.38;82.39
13476;BME280;6810;63.824;20.288;2022-09-27T07:24:39;101138.94;;;11.46;81.88
13476;BME280;6810;63.824;20.288;2022-09-27T07:27:25;101144.94;;;11.49;82.57
13476;BME280;6810;63.824;20.288;2022-09-27T07:30:13;101134.34;;;11.48;82.26
13476;BME280;6810;63.824;20.288;2022-09-27T07:33:03;101148.06;;;11.57;81.26
13476;BME280;6810;63.824;20.288;2022-09-27T07:35:50;101145.22;;;11.60;81.38
13476;BME280;6810;63.824;20.288;2022-09-27T07:38:40;101138.06;;;11.61;81.63
13476;BME280;6810;63.824;20.288;2022-09-27T07:41:30;101126.78;;;11.56;81.04
13476;BME280;6810;63.824;20.288;2022-09-27T07:44:17;101147.22;;;11.72;81.15
13476;BME280;6810;63.824;20.288;2022-09-27T07:47:27;101148.78;;;11.76;81.52
13476;BME280;6810;63.824;20.288;2022-09-27T07:50:21;101149.38;;;11.81;80.94
13476;BME280;6810;63.824;20.288;2022-09-27T07:53:34;101146.53;;;11.84;81.63
13476;BME280;6810;63.824;20.288;2022-09-27T07:56:37;101158.69;;;11.90;80.37
13476;BME280;6810;63.824;20.288;2022-09-27T07:59:24;101155.84;;;11.93;80.71
13476;BME280;6810;63.824;20.288;2022-09-27T08:02:16;101146.72;;;11.97;80.57
13476;BME280;6810;63.824;20.288;2022-09-27T08:05:04;101155.31;;;12.02;80.15
13476;BME280;6810;63.824;20.288;2022-09-27T08:07:54;101144.72;;;12.00;80.26
13476;BME280;6810;63.824;20.288;2022-09-27T08:10:47;101155.56;;;12.13;79.95
13476;BME280;6810;63.824;20.288;2022-09-27T08:13:35;101154.25;;;12.20;79.19
13476;BME280;6810;63.824;20.288;2022-09-27T08:16:27;101163.75;;;12.26;79.97
13476;BME280;6810;63.824;20.288;2022-09-27T08:19:28;101159.84;;;12.31;79.85
13476;BME280;6810;63.824;20.288;2022-09-27T08:22:40;101162.16;;;12.37;79.46
13476;BME280;6810;63.824;20.288;2022-09-27T08:25:40;101162.75;;;12.42;79.09
13476;BME280;6810;63.824;20.288;2022-09-27T08:28:39;101164.13;;;12.49;78.26
13476;BME280;6810;63.824;20.288;2022-09-27T08:31:29;101160.31;;;12.53;78.03
13476;BME280;6810;63.824;20.288;2022-09-27T08:34:17;101165.22;;;12.61;77.39
13476;BME280;6810;63.824;20.288;2022-09-27T08:37:04;101172.00;;;12.66;77.59
13476;BME280;6810;63.824;20.288;2022-09-27T08:39:52;101169.94;;;12.71;77.68
13476;BME280;6810;63.824;20.288;2022-09-27T08:42:52;101147.94;;;12.66;77.67
13476;BME280;6810;63.824;20.288;2022-09-27T08:46:13;101169.00;;;12.86;77.03
13476;BME280;6810;63.824;20.288;2022-09-27T08:48:43;101170.53;;;12.90;76.69
13476;BME280;6810;63.824;20.288;2022-09-27T08:51:14;101169.41;;;12.94;76.03
13476;BME280;6810;63.824;20.288;2022-09-27T08:53:52;101171.81;;;12.99;76.14
13476;BME280;6810;63.824;20.288;2022-09-27T08:56:23;101174.31;;;13.02;75.08
13476;BME280;6810;63.824;20.288;2022-09-27T08:58:57;101166.94;;;13.05;75.41
13476;BME280;6810;63.824;20.288;2022-09-27T09:01:32;101167.44;;;13.12;74.64
13476;BME280;6810;63.824;20.288;2022-09-27T09:04:11;101142.31;;;13.00;74.96
13476;BME280;6810;63.824;20.288;2022-09-27T09:07:17;101172.22;;;13.21;74.68
13476;BME280;6810;63.824;20.288;2022-09-27T09:10:18;101180.75;;;13.27;75.23
13476;BME280;6810;63.824;20.288;2022-09-27T09:31:49;101184.47;;;13.67;73.40
13476;BME280;6810;63.824;20.288;2022-09-27T09:34:52;101185.22;;;13.69;73.27
13476;BME280;6810;63.824;20.288;2022-09-27T09:37:48;101182.66;;;13.67;72.92
13476;BME280;6810;63.824;20.288;2022-09-27T09:40:44;101188.94;;;13.66;72.72
13476;BME280;6810;63.824;20.288;2022-09-27T09:43:52;101195.28;;;13.65;72.71
13476;BME280;6810;63.824;20.288;2022-09-27T09:46:47;101185.63;;;13.63;73.07
13476;BME280;6810;63.824;20.288;2022-09-27T09:49:42;101187.44;;;13.62;72.74
13476;BME280;6810;63.824;20.288;2022-09-27T09:52:41;101191.16;;;13.60;72.53
13476;BME280;6810;63.824;20.288;2022-09-27T09:55:34;101194.69;;;13.60;72.97
13476;BME280;6810;63.824;20.288;2022-09-27T09:58:27;101199.31;;;13.58;72.71
13476;BME280;6810;63.824;20.288;2022-09-27T10:01:28;101194.78;;;13.59;72.55
13476;BME280;6810;63.824;20.288;2022-09-27T10:04:21;101193.19;;;13.56;72.44
13476;BME280;6810;63.824;20.288;2022-09-27T10:07:09;101200.34;;;13.56;72.77
13476;BME280;6810;63.824;20.288;2022-09-27T10:09:59;101204.84;;;13.55;72.76
13476;BME280;6810;63.824;20.288;2022-09-27T10:12:54;101213.19;;;13.51;72.91
13476;BME280;6810;63.824;20.288;2022-09-27T10:16:11;101207.63;;;13.54;72.60
13476;BME280;6810;63.824;20.288;2022-09-27T10:19:02;101212.13;;;13.53;72.82
13476;BME280;6810;63.824;20.288;2022-09-27T10:21:49;101197.75;;;13.40;72.71
13476;BME280;6810;63.824;20.288;2022-09-27T10:24:56;101211.44;;;13.50;72.39
13476;BME280;6810;63.824;20.288;2022-09-27T10:27:53;101215.09;;;13.49;72.70
13476;BME280;6810;63.824;20.288;2022-09-27T10:30:41;101227.50;;;13.50;72.76
13476;BME280;6810;63.824;20.288;2022-09-27T10:33:33;101229.34;;;13.49;72.49
13476;BME280;6810;63.824;20.288;2022-09-27T10:36:25;101216.88;;;13.48;72.76
13476;BME280;6810;63.824;20.288;2022-09-27T10:39:21;101208.56;;;13.39;72.56
13476;BME280;6810;63.824;20.288;2022-09-27T10:42:36;101221.41;;;13.48;72.70
13476;BME280;6810;63.824;20.288;2022-09-27T10:45:35;101229.44;;;13.48;72.44
13476;BME280;6810;63.824;20.288;2022-09-27T10:48:22;101234.81;;;13.48;72.60
13476;BME280;6810;63.824;20.288;2022-09-27T10:51:29;101230.38;;;13.47;72.79
13476;BME280;6810;63.824;20.288;2022-09-27T10:54:32;101238.50;;;13.45;72.62
13476;BME280;6810;63.824;20.288;2022-09-27T10:57:22;101231.53;;;13.43;72.66
13476;BME280;6810;63.824;20.288;2022-09-27T11:00:31;101236.22;;;13.39;72.59
13476;BME280;6810;63.824;20.288;2022-09-27T11:03:19;101247.00;;;13.38;72.25
13476;BME280;6810;63.824;20.288;2022-09-27T11:06:27;101242.91;;;13.32;72.94
13476;BME280;6810;63.824;20.288;2022-09-27T11:09:22;101243.66;;;13.34;73.03
13476;BME280;6810;63.824;20.288;2022-09-27T11:12:13;101255.44;;;13.32;72.30
13476;BME280;6810;63.824;20.288;2022-09-27T11:15:03;101251.13;;;13.29;72.52
13476;BME280;6810;63.824;20.288;2022-09-27T11:18:01;101261.06;;;13.27;72.75
13476;BME280;6810;63.824;20.288;2022-09-27T11:36:50;101256.25;;;13.18;73.14
13476;BME280;6810;63.824;20.288;2022-09-27T11:40:00;101257.97;;;13.19;73.36
13476;BME280;6810;63.824;20.288;2022-09-27T11:46:09;101254.72;;;13.14;72.55
13476;BME280;6810;63.824;20.288;2022-09-27T12:04:32;101260.88;;;13.01;73.02
13476;BME280;6810;63.824;20.288;2022-09-27T12:07:30;101261.84;;;13.00;73.17
13476;BME280;6810;63.824;20.288;2022-09-27T12:10:21;101257.53;;;12.97;73.22
13476;BME280;6810;63.824;20.288;2022-09-27T12:13:12;101251.56;;;12.92;72.62
13476;BME280;6810;63.824;20.288;2022-09-27T12:16:00;101267.34;;;12.97;73.09
13476;BME280;6810;63.824;20.288;2022-09-27T12:18:50;101252.19;;;12.97;72.48
13476;BME280;6810;63.824;20.288;2022-09-27T12:21:49;101264.69;;;12.97;72.81
13476;BME280;6810;63.824;20.288;2022-09-27T12:24:41;101261.91;;;12.98;73.08
13476;BME280;6810;63.824;20.288;2022-09-27T12:27:45;101254.84;;;12.97;72.81
13476;BME280;6810;63.824;20.288;2022-09-27T12:30:38;101252.28;;;12.96;72.65
13476;BME280;6810;63.824;20.288;2022-09-27T12:33:52;101264.53;;;13.00;72.28
13476;BME280;6810;63.824;20.288;2022-09-27T12:37:02;101267.22;;;13.00;72.46
13476;BME280;6810;63.824;20.288;2022-09-27T12:39:57;101258.22;;;13.01;72.31
13476;BME280;6810;63.824;20.288;2022-09-27T12:46:36;101265.78;;;13.08;72.63
13476;BME280;6810;63.824;20.288;2022-09-27T12:53:02;101268.78;;;13.18;72.22
13476;BME280;6810;63.824;20.288;2022-09-27T13:12:48;101270.34;;;13.36;71.88
13476;BME280;6810;63.824;20.288;2022-09-27T13:15:37;101275.03;;;13.46;71.75
13476;BME280;6810;63.824;20.288;2022-09-27T13:24:48;101268.84;;;13.74;71.73
13476;BME280;6810;63.824;20.288;2022-09-27T13:27:52;101285.78;;;13.88;71.19
13476;BME280;6810;63.824;20.288;2022-09-27T13:36:30;101275.34;;;13.98;70.26
13476;BME280;6810;63.824;20.288;2022-09-27T13:39:18;101279.75;;;13.99;69.49
13476;BME280;6810;63.824;20.288;2022-09-27T13:42:38;101276.09;;;14.00;69.61
13476;BME280;6810;63.824;20.288;2022-09-27T13:45:55;101282.53;;;13.98;68.86
13476;BME280;6810;63.824;20.288;2022-09-27T13:49:02;101282.63;;;13.96;69.19
13476;BME280;6810;63.824;20.288;2022-09-27T13:52:37;101283.69;;;13.93;69.20
13476;BME280;6810;63.824;20.288;2022-09-27T13:55:47;101281.84;;;13.94;68.92
13476;BME280;6810;63.824;20.288;2022-09-27T13:59:00;101282.91;;;13.91;68.39
13476;BME280;6810;63.824;20.288;2022-09-27T14:02:30;101280.34;;;13.90;68.41
13476;BME280;6810;63.824;20.288;2022-09-27T14:05:29;101292.97;;;13.88;68.40
13476;BME280;6810;63.824;20.288;2022-09-27T14:08:24;101289.53;;;13.86;68.45
13476;BME280;6810;63.824;20.288;2022-09-27T14:14:35;101288.06;;;13.80;68.30
13476;BME280;6810;63.824;20.288;2022-09-27T14:17:23;101292.66;;;13.78;68.46
13476;BME280;6810;63.824;20.288;2022-09-27T14:20:51;101296.50;;;13.74;68.45
13476;BME280;6810;63.824;20.288;2022-09-27T14:27:29;101297.94;;;13.66;68.44
13476;BME280;6810;63.824;20.288;2022-09-27T14:30:29;101296.38;;;13.62;68.82
13476;BME280;6810;63.824;20.288;2022-09-27T14:33:39;101294.00;;;13.57;68.70
13476;BME280;6810;63.824;20.288;2022-09-27T14:36:31;101290.94;;;13.49;69.24
13476;BME280;6810;63.824;20.288;2022-09-27T14:39:28;101290.16;;;13.47;69.05
13476;BME280;6810;63.824;20.288;2022-09-27T14:42:28;101263.16;;;13.22;69.28
13476;BME280;6810;63.824;20.288;2022-09-27T14:45:35;101307.72;;;13.37;69.86
13476;BME280;6810;63.824;20.288;2022-09-27T14:48:31;101304.50;;;13.32;69.89
13476;BME280;6810;63.824;20.288;2022-09-27T14:51:25;101311.94;;;13.27;70.06
13476;BME280;6810;63.824;20.288;2022-09-27T14:54:23;101315.84;;;13.22;69.49
13476;BME280;6810;63.824;20.288;2022-09-27T14:56:53;101316.13;;;13.17;69.90
13476;BME280;6810;63.824;20.288;2022-09-27T14:59:41;101312.16;;;13.09;69.84
13476;BME280;6810;63.824;20.288;2022-09-27T15:02:28;101325.53;;;13.09;70.57
13476;BME280;6810;63.824;20.288;2022-09-27T15:05:16;101317.69;;;13.06;69.99
13476;BME280;6810;63.824;20.288;2022-09-27T15:08:05;101322.34;;;13.02;69.77
13476;BME280;6810;63.824;20.288;2022-09-27T15:10:52;101313.63;;;12.99;70.19
13476;BME280;6810;63.824;20.288;2022-09-27T15:13:40;101319.06;;;12.97;70.67
13476;BME280;6810;63.824;20.288;2022-09-27T15:16:29;101316.59;;;12.94;70.84
13476;BME280;6810;63.824;20.288;2022-09-27T15:19:29;101322.94;;;12.92;70.32
13476;BME280;6810;63.824;20.288;2022-09-27T15:22:42;101326.78;;;12.88;70.22
13476;BME280;6810;63.824;20.288;2022-09-27T15:25:37;101335.84;;;12.85;70.82
13476;BME280;6810;63.824;20.288;2022-09-27T15:28:24;101333.25;;;12.84;71.45
13476;BME280;6810;63.824;20.288;2022-09-27T15:31:12;101340.69;;;12.79;71.55
13476;BME280;6810;63.824;20.288;2022-09-27T15:34:01;101342.75;;;12.74;71.65
13476;BME280;6810;63.824;20.288;2022-09-27T15:36:55;101293.69;;;12.44;71.87
13476;BME280;6810;63.824;20.288;2022-09-27T15:39:42;101340.50;;;12.66;71.65
13476;BME280;6810;63.824;20.288;2022-09-27T15:43:11;101341.75;;;12.61;72.63
13476;BME280;6810;63.824;20.288;2022-09-27T15:46:01;101346.38;;;12.57;71.88
13476;BME280;6810;63.824;20.288;2022-09-27T15:49:27;101342.31;;;12.50;72.11
13476;BME280;6810;63.824;20.288;2022-09-27T15:52:42;101347.91;;;12.46;72.75
13476;BME280;6810;63.824;20.288;2022-09-27T15:55:31;101345.50;;;12.41;73.20
13476;BME280;6810;63.824;20.288;2022-09-27T15:58:20;101343.00;;;12.38;73.17
13476;BME280;6810;63.824;20.288;2022-09-27T16:01:16;101350.44;;;12.33;72.77
13476;BME280;6810;63.824;20.288;2022-09-27T16:04:07;101344.38;;;12.30;73.39
13476;BME280;6810;63.824;20.288;2022-09-27T16:06:54;101349.91;;;12.27;73.31
13476;BME280;6810;63.824;20.288;2022-09-27T16:09:41;101346.63;;;12.21;74.03
13476;BME280;6810;63.824;20.288;2022-09-27T16:12:28;101344.09;;;12.18;73.74
13476;BME280;6810;63.824;20.288;2022-09-27T16:15:15;101330.63;;;12.04;74.38
13476;BME280;6810;63.824;20.288;2022-09-27T16:18:02;101349.97;;;12.09;73.95
13476;BME280;6810;63.824;20.288;2022-09-27T16:20:56;101354.59;;;12.06;74.80
13476;BME280;6810;63.824;20.288;2022-09-27T16:23:43;101344.16;;;12.01;74.37
13476;BME280;6810;63.824;20.288;2022-09-27T16:26:32;101341.81;;;11.95;74.58
13476;BME280;6810;63.824;20.288;2022-09-27T16:29:19;101355.19;;;11.95;74.17
13476;BME280;6810;63.824;20.288;2022-09-27T16:32:10;101342.06;;;11.91;74.63
13476;BME280;6810;63.824;20.288;2022-09-27T16:34:57;101349.47;;;11.86;74.37
13476;BME280;6810;63.824;20.288;2022-09-27T16:37:44;101351.38;;;11.84;74.71
13476;BME280;6810;63.824;20.288;2022-09-27T16:40:31;101343.69;;;11.78;75.49
13476;BME280;6810;63.824;20.288;2022-09-27T16:43:18;101339.84;;;11.66;75.35